Buckingham, VA (23921)

03:39 PM EDT del 24 Agosto 2016 (GMT -0400)
Buckingham Court House | | Change Station

Alt. 459 ft 37.55 °N, 78.56 °W | Updated 22 seconds ago

Scattered Clouds
Nubi sparse
87.3 °F
Sembra 90 °F
N
1.8
Vento Variabile Vento da SO
Gusts 2.5 mph

Oggi
Massima -- | Minima -- °F
--% Possibilità di precip.
Ieri
Massima -- | Minima -- °F
Precip. -- in
Pressione 30.23 in
Visibilità 10.0 miglia
Nuvole Nubi sparse 4400 ft
Nubi sparse 6500 ft
Indice di calore 90 °F
Punto di rugiada 67 °F
Umidità 51%
Piovosità 0.00 in
Spessore del manto nevoso Non disponibile.
6:38 AM 7:54 PM
Gobba a levante, 54% visible
METAR KFVX 241915Z AUTO 20006KT 10SM SCT044 SCT065 29/18 A3023 RMK AO2 T02920180
Pressione 30.23 in
Visibilità 10.0 miglia
Nuvole Nubi sparse 4400 ft
Nubi sparse 6500 ft
Indice di calore 90 °F
Punto di rugiada 67 °F
Umidità 51%
Piovosità 0.00 in
Spessore del manto nevoso Non disponibile.
6:38 AM 7:54 PM
Gobba a levante, 54% visible
METAR KFVX 241915Z AUTO 20006KT 10SM SCT044 SCT065 29/18 A3023 RMK AO2 T02920180

10-Day Weather Forecast

Almanac

Astronomia

Aug. 24, 2016 Alba Tramonto
Ora attuale
Crepuscolo civile
Crepuscolo nautico
Crepuscolo astronomico
Luna
Estensione della luce visibile
Lunghezza del giorno
Tomorrow will be .
, % of the Moon is Illuminated

Gli estremi di oggi

State Highs State Lows

Community

WunderPhotos

Upload Photos

1,934,689 foto caricate!

WunderBlog® & News

Nearby

Qualità dell'aria

  Qualità dell'aria Indice AQ Inquinante
Not available.

Profondità neve

Stazione Profondità Altitudine

Attività sismica

Città  Distanza Mag. Data & Ora
Minimo Magnitudo Mostrato è 2.5.

Temperature delle acque costiere

Località Temperatura

Stations

Stazioni meteo nelle vicinanze

Ubicazione della stazione Temp. Raffreddamento del vento Punto di rugiada Umidità Vento Precip. Alt. Aggiornato Tipo
                   

Watches & Warnings

There are currently no watches in effect.